Time;durP1;ratioP1;P1;durP2;ratioP2;P2;SDS_P1;SDS_P2;PMS_P1;PMS_P2;Temp;Humidity;BMP_temperature;BMP_pressure;BME280_temperature;BME280_humidity;BME280_pressure;Samples;Min_cycle;Max_cycle;Signal;HPM_P1;HPM_P2
2022/11/13 00:01:51;;;;;;;17.55;13.90;;;6.60;99.90;;;;;;5103597;27;20046;-69
2022/11/13 00:04:16;;;;;;;18.33;13.40;;;6.90;99.90;;;;;;5155772;27;20047;-69
2022/11/13 00:06:42;;;;;;;18.42;14.05;;;6.70;99.90;;;;;;5155797;27;20103;-69
2022/11/13 00:09:10;;;;;;;15.05;13.05;;;7.10;99.90;;;;;;5137393;27;20117;-69
2022/11/13 00:11:36;;;;;;;16.13;13.25;;;7.00;99.90;;;;;;5137193;27;20513;-69
2022/11/13 00:14:03;;;;;;;19.02;13.63;;;7.10;99.90;;;;;;5136640;27;20042;-69
2022/11/13 00:16:28;;;;;;;16.92;13.88;;;7.10;99.90;;;;;;5137339;27;20038;-69
2022/11/13 00:18:54;;;;;;;18.42;14.57;;;6.80;99.90;;;;;;5155497;27;20096;-69
2022/11/13 00:21:22;;;;;;;19.58;13.95;;;6.60;99.90;;;;;;5155576;27;20047;-69
2022/11/13 00:23:48;;;;;;;17.20;14.27;;;7.30;99.90;;;;;;5155529;27;20046;-69
2022/11/13 00:26:20;;;;;;;17.45;14.40;;;6.60;99.90;;;;;;5155549;27;20424;-69
2022/11/13 00:28:46;;;;;;;18.08;13.40;;;7.20;99.90;;;;;;5155415;27;20043;-69
2022/11/13 00:31:14;;;;;;;18.77;13.50;;;7.20;99.90;;;;;;5155479;27;20057;-69
2022/11/13 00:33:40;;;;;;;17.45;13.50;;;7.00;99.90;;;;;;5155384;27;20055;-69
2022/11/13 00:36:09;;;;;;;18.52;13.75;;;7.20;99.90;;;;;;5136756;27;20367;-69
2022/11/13 00:38:34;;;;;;;17.58;13.60;;;6.90;99.90;;;;;;5155383;27;20046;-69
2022/11/13 00:41:00;;;;;;;18.17;12.95;;;7.10;99.90;;;;;;5155621;27;20062;-69
2022/11/13 00:43:27;;;;;;;14.77;12.88;;;7.50;99.90;;;;;;5154359;27;20054;-69
2022/11/13 00:45:52;;;;;;;19.05;13.15;;;7.50;99.90;;;;;;5137226;27;20562;-69
2022/11/13 00:48:18;;;;;;;18.13;13.63;;;7.50;99.90;;;;;;5155214;27;20088;-69
2022/11/13 00:50:44;;;;;;;17.65;12.98;;;7.60;99.90;;;;;;5136746;27;20050;-69
2022/11/13 00:53:10;;;;;;;18.55;13.05;;;7.20;99.90;;;;;;5119681;27;20057;-69
2022/11/13 00:55:36;;;;;;;18.40;13.60;;;7.20;99.90;;;;;;5155260;27;20043;-70
2022/11/13 00:58:03;;;;;;;19.23;13.75;;;7.50;99.90;;;;;;5155078;27;20143;-69
2022/11/13 01:00:30;;;;;;;16.30;12.65;;;7.20;99.90;;;;;;5155072;27;20059;-69
2022/11/13 01:02:57;;;;;;;17.55;12.95;;;7.40;99.90;;;;;;5136782;27;20047;-69
2022/11/13 01:05:23;;;;;;;16.40;12.45;;;7.50;99.90;;;;;;5136613;27;20051;-69
2022/11/13 01:07:49;;;;;;;14.90;11.55;;;7.70;99.90;;;;;;5155036;27;20043;-70
2022/11/13 01:10:15;;;;;;;16.30;12.32;;;7.30;99.90;;;;;;5154973;27;20047;-70
2022/11/13 01:12:40;;;;;;;17.73;12.48;;;7.50;99.90;;;;;;5154364;27;20046;-69
2022/11/13 01:15:06;;;;;;;16.85;12.25;;;7.70;99.90;;;;;;5136464;27;20050;-69
2022/11/13 01:17:32;;;;;;;17.08;11.77;;;7.20;99.90;;;;;;5136784;27;20047;-69
2022/11/13 01:19:58;;;;;;;13.25;11.18;;;7.70;99.90;;;;;;5154560;27;20058;-69
2022/11/13 01:22:23;;;;;;;16.17;11.75;;;7.60;99.90;;;;;;5139020;27;20042;-70
2022/11/13 01:24:49;;;;;;;18.00;11.88;;;7.40;99.90;;;;;;5140736;27;20137;-69
2022/11/13 01:27:15;;;;;;;17.98;13.10;;;7.60;99.90;;;;;;5141390;27;20386;-69
2022/11/13 01:29:41;;;;;;;14.88;12.45;;;7.40;99.90;;;;;;5123924;27;20046;-69
2022/11/13 01:32:07;;;;;;;16.20;12.48;;;7.80;99.90;;;;;;5158885;27;20163;-69
2022/11/13 01:34:32;;;;;;;15.75;12.00;;;7.80;99.90;;;;;;5140345;27;20122;-69
2022/11/13 01:36:58;;;;;;;17.83;12.63;;;7.30;99.90;;;;;;5158781;27;20481;-69
2022/11/13 01:39:24;;;;;;;16.13;12.15;;;7.60;99.90;;;;;;5140337;27;20099;-69
2022/11/13 01:41:50;;;;;;;16.27;12.18;;;7.30;99.90;;;;;;5158344;27;20435;-70
2022/11/13 01:44:18;;;;;;;14.63;12.05;;;7.20;99.90;;;;;;5122842;27;20043;-69
2022/11/13 01:46:55;;;;;;;19.02;12.43;;;7.90;99.90;;;;;;5158474;27;20054;-69
2022/11/13 01:49:36;;;;;;;14.15;11.90;;;7.70;99.90;;;;;;5158963;27;20046;-69
2022/11/13 01:52:09;;;;;;;14.35;12.13;;;7.60;99.90;;;;;;5158651;27;20043;-69
2022/11/13 01:54:45;;;;;;;15.45;12.20;;;7.30;99.90;;;;;;5140044;27;20054;-69
2022/11/13 01:57:12;;;;;;;14.68;11.50;;;7.50;99.90;;;;;;5140195;27;20522;-70
2022/11/13 01:59:40;;;;;;;16.67;11.98;;;7.70;99.90;;;;;;5158239;27;20096;-69
2022/11/13 02:02:06;;;;;;;15.02;11.65;;;7.60;99.90;;;;;;5139728;27;20129;-69
2022/11/13 02:04:32;;;;;;;14.18;11.68;;;7.50;99.90;;;;;;5139886;27;20530;-69
2022/11/13 02:07:06;;;;;;;15.77;11.30;;;8.00;99.90;;;;;;5139828;27;20047;-69
2022/11/13 02:09:41;;;;;;;15.73;12.48;;;7.70;99.90;;;;;;5158965;27;20064;-69
2022/11/13 02:12:11;;;;;;;16.00;10.73;;;7.80;99.90;;;;;;5157820;27;20039;-70
2022/11/13 02:14:40;;;;;;;17.08;11.45;;;7.20;99.90;;;;;;5158052;27;20474;-69
2022/11/13 02:17:11;;;;;;;15.30;12.00;;;7.60;99.90;;;;;;5157857;27;20076;-69
2022/11/13 02:19:42;;;;;;;15.07;11.38;;;7.60;99.90;;;;;;5139525;27;20042;-69
2022/11/13 02:22:21;;;;;;;15.80;12.15;;;7.50;99.90;;;;;;5157995;27;20517;-69
2022/11/13 02:24:48;;;;;;;15.75;11.40;;;7.50;99.90;;;;;;5158012;27;20470;-69
2022/11/13 02:27:40;;;;;;;14.32;11.30;;;7.70;99.90;;;;;;5158058;27;20451;-69
2022/11/13 02:30:21;;;;;;;14.88;11.57;;;8.20;99.90;;;;;;5145744;27;20133;-69
2022/11/13 02:32:50;;;;;;;15.27;10.43;;;7.40;99.90;;;;;;5156559;27;20050;-69
2022/11/13 02:35:29;;;;;;;13.52;11.32;;;7.90;99.90;;;;;;5157389;27;20094;-69
2022/11/13 02:37:56;;;;;;;14.55;11.57;;;7.20;99.90;;;;;;5138660;27;20486;-69
2022/11/13 02:40:23;;;;;;;13.75;10.60;;;8.00;99.90;;;;;;5158089;27;20054;-70
2022/11/13 02:42:48;;;;;;;16.40;11.77;;;7.30;99.90;;;;;;5156871;27;20047;-70
2022/11/13 02:45:14;;;;;;;16.23;11.60;;;7.80;99.90;;;;;;5157661;27;20034;-69
2022/11/13 02:47:40;;;;;;;16.63;11.48;;;7.40;99.90;;;;;;5157307;27;20035;-69
2022/11/13 02:50:06;;;;;;;14.15;11.07;;;7.50;99.90;;;;;;5157238;27;20053;-70
2022/11/13 02:52:32;;;;;;;14.82;11.55;;;7.30;99.90;;;;;;5157298;27;20093;-69
2022/11/13 02:54:57;;;;;;;12.60;10.00;;;7.70;99.90;;;;;;5157054;27;20078;-69
2022/11/13 02:57:23;;;;;;;13.18;10.80;;;7.50;99.90;;;;;;5157486;27;20043;-69
2022/11/13 02:59:49;;;;;;;15.77;11.35;;;7.70;99.90;;;;;;5157157;27;20130;-69
2022/11/13 03:02:14;;;;;;;16.45;10.90;;;7.90;99.90;;;;;;5157034;27;20550;-69
2022/11/13 03:04:40;;;;;;;13.48;10.57;;;7.80;99.90;;;;;;5157580;27;20085;-69
2022/11/13 03:07:06;;;;;;;14.73;10.48;;;7.60;99.90;;;;;;5138443;27;20053;-69
2022/11/13 03:09:31;;;;;;;15.15;11.05;;;7.40;99.90;;;;;;5121623;27;20039;-69
2022/11/13 03:11:57;;;;;;;15.02;12.00;;;7.80;99.90;;;;;;5137900;27;20074;-70
2022/11/13 03:14:23;;;;;;;14.30;10.43;;;7.50;99.90;;;;;;5156712;27;20129;-69
2022/11/13 03:16:48;;;;;;;17.65;11.45;;;7.40;99.90;;;;;;5156762;27;20046;-69
2022/11/13 03:19:14;;;;;;;14.55;11.05;;;7.80;99.90;;;;;;5156920;27;20102;-69
2022/11/13 03:21:40;;;;;;;13.88;10.57;;;7.60;99.90;;;;;;5156649;27;20393;-69
2022/11/13 03:24:06;;;;;;;14.63;11.02;;;8.00;99.90;;;;;;5156687;27;20046;-69
2022/11/13 03:26:32;;;;;;;17.02;10.38;;;7.20;99.90;;;;;;5138075;27;20053;-69
2022/11/13 03:28:58;;;;;;;14.45;11.57;;;7.60;99.90;;;;;;5138234;27;20462;-69
2022/11/13 03:31:24;;;;;;;13.85;10.60;;;7.30;99.90;;;;;;5138062;27;20139;-69
2022/11/13 03:33:52;;;;;;;14.93;11.10;;;7.10;99.90;;;;;;5156426;27;20146;-70
2022/11/13 03:36:18;;;;;;;14.30;10.55;;;7.40;99.90;;;;;;5156272;27;20085;-70
2022/11/13 03:38:44;;;;;;;16.15;11.00;;;7.40;99.90;;;;;;5137824;27;20051;-70
2022/11/13 03:41:09;;;;;;;14.45;11.20;;;7.60;99.90;;;;;;5156276;27;20061;-69
2022/11/13 03:43:35;;;;;;;13.98;10.88;;;7.40;99.90;;;;;;5155627;27;20078;-69
2022/11/13 03:46:01;;;;;;;13.65;11.48;;;7.50;99.90;;;;;;5137523;27;20371;-69
2022/11/13 03:48:26;;;;;;;14.45;11.32;;;7.40;99.90;;;;;;5137751;27;20103;-69
2022/11/13 03:50:54;;;;;;;14.45;11.05;;;7.20;99.90;;;;;;5155783;27;20054;-69
2022/11/13 03:53:19;;;;;;;12.98;10.60;;;7.50;99.90;;;;;;5155746;27;20506;-69
2022/11/13 03:55:46;;;;;;;13.30;10.40;;;7.20;99.90;;;;;;5156004;27;20068;-69
2022/11/13 03:58:12;;;;;;;14.65;10.57;;;7.50;99.90;;;;;;5156038;27;20147;-69
2022/11/13 04:00:39;;;;;;;14.60;11.38;;;6.90;99.90;;;;;;5137803;27;20054;-69
2022/11/13 04:03:05;;;;;;;12.85;11.02;;;6.90;99.90;;;;;;5156132;27;20053;-69
2022/11/13 04:05:30;;;;;;;13.82;10.38;;;7.40;99.90;;;;;;5137583;27;20374;-69
2022/11/13 04:07:56;;;;;;;14.60;10.98;;;7.60;99.90;;;;;;5137593;27;20049;-69
2022/11/13 04:10:22;;;;;;;13.05;10.02;;;7.30;99.90;;;;;;5155744;27;20092;-69
2022/11/13 04:12:48;;;;;;;13.65;9.88;;;6.90;99.90;;;;;;5155281;27;20046;-69
2022/11/13 04:15:13;;;;;;;13.98;10.88;;;7.40;99.90;;;;;;5155604;27;20039;-69
2022/11/13 04:17:39;;;;;;;15.95;10.63;;;7.00;99.90;;;;;;5156118;27;20039;-69
2022/11/13 04:20:05;;;;;;;12.55;10.00;;;7.10;99.90;;;;;;5155587;27;20050;-69
2022/11/13 04:22:31;;;;;;;14.23;9.85;;;6.90;99.90;;;;;;5155487;27;20046;-69
2022/11/13 04:24:57;;;;;;;12.43;10.27;;;7.30;99.90;;;;;;5155773;27;20043;-69
2022/11/13 04:27:22;;;;;;;14.95;10.65;;;7.00;99.90;;;;;;5137079;27;20389;-69
2022/11/13 04:29:48;;;;;;;11.77;10.35;;;6.80;99.90;;;;;;5155254;27;20054;-69
2022/11/13 04:32:14;;;;;;;13.55;10.15;;;7.00;99.90;;;;;;5154994;27;20505;-69
2022/11/13 04:34:40;;;;;;;13.40;10.18;;;7.10;99.90;;;;;;5155212;27;20046;-69
2022/11/13 04:37:05;;;;;;;14.65;10.85;;;6.60;99.90;;;;;;5136990;27;20423;-69
2022/11/13 04:39:31;;;;;;;13.55;10.40;;;7.00;99.90;;;;;;5137099;27;20054;-69
2022/11/13 04:44:41;;;;;;;15.13;10.95;;;6.50;99.90;;;;;;5155213;27;20466;-69
2022/11/13 04:47:07;;;;;;;13.45;10.88;;;6.40;99.90;;;;;;5155170;27;20043;-69
2022/11/13 04:49:32;;;;;;;12.63;10.13;;;7.30;99.90;;;;;;5154813;27;20039;-69
2022/11/13 04:51:58;;;;;;;13.40;10.63;;;6.60;99.90;;;;;;5155208;27;20049;-69
2022/11/13 04:54:24;;;;;;;13.60;10.68;;;6.80;99.90;;;;;;5154982;27;20053;-69
2022/11/13 04:56:49;;;;;;;12.68;10.43;;;6.60;99.90;;;;;;5156781;27;20050;-69
2022/11/13 04:59:15;;;;;;;13.90;10.57;;;6.30;99.90;;;;;;5159468;27;20095;-69
2022/11/13 05:01:41;;;;;;;13.65;10.02;;;6.60;99.90;;;;;;5124018;27;20497;-69
2022/11/13 05:04:09;;;;;;;13.15;10.45;;;7.30;99.90;;;;;;5141137;27;20038;-69
2022/11/13 05:06:35;;;;;;;13.38;10.65;;;6.70;99.90;;;;;;5124066;27;20075;-69
2022/11/13 05:09:00;;;;;;;12.95;10.70;;;7.10;99.90;;;;;;5159264;27;20137;-69
2022/11/13 05:11:26;;;;;;;12.73;10.35;;;6.70;99.90;;;;;;5159241;27;20043;-69
2022/11/13 05:13:51;;;;;;;13.30;10.55;;;7.10;99.90;;;;;;5158590;27;20039;-69
2022/11/13 05:16:17;;;;;;;13.23;10.27;;;6.60;99.90;;;;;;5159066;27;20049;-69
2022/11/13 05:18:43;;;;;;;12.73;10.73;;;6.40;99.90;;;;;;5159039;27;20043;-69
2022/11/13 05:21:09;;;;;;;13.75;10.95;;;6.60;99.90;;;;;;5140769;27;20394;-69
2022/11/13 05:23:34;;;;;;;13.85;10.43;;;7.00;99.90;;;;;;5158704;27;20078;-69
2022/11/13 05:26:05;;;;;;;15.00;10.80;;;6.80;99.90;;;;;;5158932;27;20045;-69
2022/11/13 05:28:31;;;;;;;15.18;10.55;;;6.10;99.90;;;;;;5140730;27;20121;-69
2022/11/13 05:31:09;;;;;;;11.93;10.15;;;6.30;99.90;;;;;;5158728;27;20054;-69
2022/11/13 05:33:35;;;;;;;12.00;9.73;;;6.40;99.90;;;;;;5159431;27;20371;-69
2022/11/13 05:36:07;;;;;;;13.30;9.57;;;6.40;99.90;;;;;;5140154;27;20070;-69
2022/11/13 05:38:33;;;;;;;12.85;10.07;;;6.20;99.90;;;;;;5158740;27;20113;-69
2022/11/13 05:41:09;;;;;;;13.63;10.02;;;6.30;99.90;;;;;;5140060;27;20517;-69
2022/11/13 05:43:36;;;;;;;12.35;10.05;;;6.40;99.90;;;;;;5158340;27;20082;-69
2022/11/13 05:46:07;;;;;;;12.18;9.50;;;6.60;99.90;;;;;;5158674;27;20066;-69
2022/11/13 05:48:34;;;;;;;12.07;9.70;;;6.10;99.90;;;;;;5129072;27;20051;-69
2022/11/13 05:51:05;;;;;;;12.82;9.85;;;6.80;99.90;;;;;;5137724;27;20114;-69
2022/11/13 05:53:32;;;;;;;13.48;10.20;;;6.10;99.90;;;;;;5137704;27;20047;-69
2022/11/13 05:56:09;;;;;;;12.45;9.75;;;7.00;99.90;;;;;;5119145;27;20074;-69
2022/11/13 05:58:35;;;;;;;11.98;9.88;;;6.10;99.90;;;;;;5119506;27;20076;-69
2022/11/13 06:01:20;;;;;;;11.90;9.43;;;6.10;99.90;;;;;;5102409;27;20054;-69
2022/11/13 06:03:46;;;;;;;12.20;10.27;;;6.10;99.90;;;;;;5137532;27;20078;-69
2022/11/13 06:06:15;;;;;;;12.40;9.90;;;6.00;99.90;;;;;;5137441;27;20383;-70
2022/11/13 06:08:41;;;;;;;13.77;10.25;;;6.20;99.90;;;;;;5137151;27;20409;-69
2022/11/13 06:11:13;;;;;;;12.02;9.80;;;6.50;99.90;;;;;;5118913;27;20043;-69
2022/11/13 06:13:39;;;;;;;12.20;9.85;;;6.50;99.90;;;;;;5137503;27;20176;-69
2022/11/13 06:16:08;;;;;;;12.80;9.77;;;6.00;99.90;;;;;;5137993;27;20066;-69
2022/11/13 06:18:34;;;;;;;11.23;9.20;;;5.80;99.90;;;;;;5118841;27;20122;-69
2022/11/13 06:21:02;;;;;;;13.30;9.95;;;6.40;99.90;;;;;;5137172;27;20047;-69
2022/11/13 06:23:28;;;;;;;12.68;9.30;;;6.50;99.90;;;;;;5119258;27;20091;-69
2022/11/13 06:26:15;;;;;;;13.65;9.82;;;5.90;99.90;;;;;;5137002;27;20475;-69
2022/11/13 06:28:40;;;;;;;14.75;10.95;;;5.80;99.90;;;;;;5137317;27;20050;-69
2022/11/13 06:31:09;;;;;;;13.95;9.30;;;6.30;99.90;;;;;;5084626;27;20055;-69
2022/11/13 06:33:35;;;;;;;14.25;9.40;;;6.10;99.90;;;;;;5119066;27;20047;-69
2022/11/13 06:36:03;;;;;;;12.07;9.45;;;6.40;99.90;;;;;;5136737;27;20046;-69
2022/11/13 06:38:35;;;;;;;14.13;10.88;;;5.70;99.90;;;;;;5136607;27;20043;-69
2022/11/13 06:41:02;;;;;;;10.65;9.52;;;6.00;99.90;;;;;;5137171;27;20088;-69
2022/11/13 06:43:28;;;;;;;10.52;9.32;;;6.20;99.90;;;;;;5136445;27;20047;-69
2022/11/13 06:45:54;;;;;;;12.23;9.95;;;5.90;99.90;;;;;;5136613;27;20118;-69
2022/11/13 06:48:20;;;;;;;12.77;10.38;;;5.80;99.90;;;;;;5118243;27;20458;-69
2022/11/13 06:50:46;;;;;;;13.98;10.48;;;6.40;99.90;;;;;;5118220;27;20096;-69
2022/11/13 06:53:13;;;;;;;13.45;9.52;;;6.10;99.90;;;;;;5136548;27;20061;-69
2022/11/13 06:55:46;;;;;;;13.68;10.02;;;6.20;99.90;;;;;;5136374;27;20043;-69
2022/11/13 06:58:12;;;;;;;13.52;9.50;;;5.90;99.90;;;;;;5136831;27;20398;-69
2022/11/13 07:00:39;;;;;;;11.80;9.60;;;6.00;99.90;;;;;;5136846;27;20043;-69
2022/11/13 07:03:04;;;;;;;12.32;9.20;;;6.00;99.90;;;;;;5136518;27;20406;-68
2022/11/13 07:05:30;;;;;;;12.68;9.65;;;6.30;99.90;;;;;;5117647;27;20126;-69
2022/11/13 07:07:56;;;;;;;11.40;9.82;;;6.10;99.90;;;;;;5117952;27;20131;-69
2022/11/13 07:10:21;;;;;;;11.55;9.48;;;6.40;99.90;;;;;;5135925;27;20391;-69
2022/11/13 07:12:47;;;;;;;11.98;10.15;;;6.30;99.90;;;;;;5135527;27;20054;-69
2022/11/13 07:15:15;;;;;;;13.52;9.85;;;5.60;99.90;;;;;;5136056;27;20039;-69
2022/11/13 07:17:41;;;;;;;13.02;10.02;;;5.90;99.90;;;;;;5136078;27;20131;-69
2022/11/13 07:20:07;;;;;;;12.30;10.00;;;5.90;99.90;;;;;;5135284;27;20043;-69
2022/11/13 07:22:32;;;;;;;11.80;9.75;;;5.80;99.90;;;;;;5117888;27;20047;-69
2022/11/13 07:24:58;;;;;;;12.43;10.18;;;5.80;99.90;;;;;;5135858;27;20058;-69
2022/11/13 07:27:24;;;;;;;15.88;9.57;;;6.00;99.90;;;;;;5135939;27;20052;-69
2022/11/13 07:29:49;;;;;;;13.23;9.90;;;5.80;99.90;;;;;;5117696;27;20051;-70
2022/11/13 07:32:15;;;;;;;13.15;9.60;;;6.00;99.90;;;;;;5117195;27;20054;-69
2022/11/13 07:34:41;;;;;;;13.30;9.20;;;6.30;99.90;;;;;;5135710;27;20130;-69
2022/11/13 07:37:06;;;;;;;13.93;9.68;;;6.30;99.90;;;;;;5117590;27;20134;-69
2022/11/13 07:39:32;;;;;;;11.88;9.63;;;6.50;99.90;;;;;;5117613;27;20103;-69
2022/11/13 07:41:58;;;;;;;11.50;9.40;;;6.50;99.90;;;;;;5100498;27;20473;-69
2022/11/13 07:44:23;;;;;;;12.80;9.68;;;6.50;99.90;;;;;;5134989;27;20047;-69
2022/11/13 07:46:49;;;;;;;12.05;9.18;;;6.20;99.90;;;;;;5135515;27;20054;-69
2022/11/13 07:49:15;;;;;;;12.43;9.60;;;6.30;99.90;;;;;;5135477;27;20049;-69
2022/11/13 07:51:40;;;;;;;11.80;9.00;;;6.40;99.90;;;;;;5117234;27;20043;-69
2022/11/13 07:54:06;;;;;;;12.57;9.73;;;6.40;99.90;;;;;;5117009;27;20043;-69
2022/11/13 07:56:32;;;;;;;13.50;9.63;;;6.10;99.90;;;;;;5135310;27;20039;-69
2022/11/13 07:58:58;;;;;;;14.15;9.38;;;7.00;99.90;;;;;;5135077;27;20047;-69
2022/11/13 08:01:23;;;;;;;12.75;9.50;;;6.80;99.90;;;;;;5135543;27;20497;-69
2022/11/13 08:03:49;;;;;;;12.27;9.48;;;6.20;99.90;;;;;;5135399;27;20533;-69
2022/11/13 08:06:15;;;;;;;13.63;9.90;;;7.00;99.90;;;;;;5116974;27;20083;-69
2022/11/13 08:08:40;;;;;;;10.80;8.68;;;6.90;99.90;;;;;;5135122;27;20151;-69
2022/11/13 08:11:08;;;;;;;10.95;9.40;;;6.80;99.90;;;;;;5116877;27;20055;-69
2022/11/13 08:13:34;;;;;;;11.25;9.07;;;6.40;99.90;;;;;;5134925;27;20047;-69
2022/11/13 08:16:02;;;;;;;13.32;9.80;;;6.80;99.90;;;;;;5134905;27;20085;-69
2022/11/13 08:18:29;;;;;;;12.40;9.55;;;6.40;99.90;;;;;;5134996;27;20058;-69
2022/11/13 08:20:55;;;;;;;10.27;8.18;;;6.40;99.90;;;;;;5134941;27;20483;-68
2022/11/13 08:23:21;;;;;;;13.07;9.18;;;6.80;99.90;;;;;;5134938;27;20050;-68
2022/11/13 08:25:47;;;;;;;13.95;9.82;;;6.60;99.90;;;;;;5134861;27;20055;-69
2022/11/13 08:28:13;;;;;;;10.57;8.63;;;6.50;99.90;;;;;;5134830;27;20107;-69
2022/11/13 08:30:39;;;;;;;11.80;9.02;;;7.00;99.90;;;;;;5134775;27;20078;-69
2022/11/13 08:33:04;;;;;;;11.40;8.75;;;6.80;99.90;;;;;;5135188;27;20043;-69
2022/11/13 08:35:30;;;;;;;12.07;9.25;;;6.90;99.90;;;;;;5134605;27;20082;-69
2022/11/13 08:38:07;;;;;;;14.30;8.57;;;6.60;99.90;;;;;;5099621;27;20477;-69
2022/11/13 08:40:34;;;;;;;11.52;9.40;;;7.00;99.90;;;;;;5135545;27;20043;-69
2022/11/13 08:43:01;;;;;;;10.25;8.90;;;6.60;99.90;;;;;;5133857;27;20054;-69
2022/11/13 08:45:28;;;;;;;10.88;8.77;;;7.10;99.90;;;;;;5155337;27;20050;-69
2022/11/13 08:47:54;;;;;;;12.40;9.20;;;7.10;99.90;;;;;;5155379;27;20039;-69
2022/11/13 08:50:19;;;;;;;11.82;8.93;;;6.80;99.90;;;;;;5119888;27;20057;-69
2022/11/13 08:52:45;;;;;;;12.82;9.75;;;7.40;99.90;;;;;;5155445;27;20050;-69
2022/11/13 08:55:11;;;;;;;11.75;9.07;;;7.00;99.90;;;;;;5137168;27;20047;-69
2022/11/13 08:57:37;;;;;;;13.40;8.85;;;7.00;99.90;;;;;;5155873;27;20492;-69
2022/11/13 09:00:04;;;;;;;10.63;8.73;;;6.90;99.90;;;;;;5155156;27;20560;-69
2022/11/13 09:02:30;;;;;;;11.65;8.35;;;7.00;99.90;;;;;;5137215;27;20039;-69
2022/11/13 09:04:56;;;;;;;10.88;8.57;;;7.30;99.90;;;;;;5137087;27;20049;-69
2022/11/13 09:07:22;;;;;;;11.77;8.48;;;7.30;99.90;;;;;;5136754;27;20046;-69
2022/11/13 09:09:47;;;;;;;12.18;8.60;;;7.70;99.90;;;;;;5136872;27;20089;-69
2022/11/13 09:12:14;;;;;;;11.00;8.40;;;7.40;99.90;;;;;;5155229;27;20106;-69
2022/11/13 09:14:40;;;;;;;10.80;8.20;;;7.30;99.90;;;;;;5154492;27;20134;-69
2022/11/13 09:17:05;;;;;;;12.13;8.52;;;7.50;99.90;;;;;;5155286;27;20126;-69
2022/11/13 09:19:31;;;;;;;11.95;8.85;;;7.60;99.90;;;;;;5137239;27;20099;-69
2022/11/13 09:21:57;;;;;;;11.57;9.48;;;7.80;99.90;;;;;;5155610;27;20455;-69
2022/11/13 09:24:23;;;;;;;9.73;8.60;;;7.30;99.90;;;;;;5155208;27;20450;-69
2022/11/13 09:26:48;;;;;;;10.93;8.25;;;7.70;99.90;;;;;;5149692;27;20043;-71
2022/11/13 09:29:14;;;;;;;9.65;7.85;;;7.40;99.90;;;;;;5142549;27;20042;-71
2022/11/13 09:31:40;;;;;;;11.07;8.65;;;7.50;99.90;;;;;;5145069;27;20054;-71
2022/11/13 09:34:06;;;;;;;10.98;8.50;;;7.60;99.90;;;;;;5125428;27;20534;-71
2022/11/13 09:36:32;;;;;;;11.40;8.93;;;7.60;99.90;;;;;;5143727;27;20123;-70
2022/11/13 09:38:59;;;;;;;10.93;8.45;;;7.80;99.90;;;;;;5126642;27;20070;-71
2022/11/13 09:41:33;;;;;;;11.75;8.50;;;7.90;99.90;;;;;;5125511;27;20043;-70
2022/11/13 09:44:03;;;;;;;11.75;8.88;;;7.70;99.90;;;;;;5127460;27;20093;-70
2022/11/13 09:47:06;;;;;;;9.10;8.00;;;7.90;99.90;;;;;;5147755;27;20495;-70
2022/11/13 09:49:37;;;;;;;11.05;8.88;;;7.90;99.90;;;;;;5148361;27;20133;-71
2022/11/13 09:52:12;;;;;;;11.38;9.30;;;7.90;99.90;;;;;;5147041;27;20043;-71
2022/11/13 09:54:38;;;;;;;10.73;8.98;;;7.90;99.90;;;;;;5111089;27;20039;-71
2022/11/13 09:57:38;;;;;;;11.27;9.00;;;8.20;99.90;;;;;;5148585;27;20086;-70
2022/11/13 10:00:11;;;;;;;10.73;8.27;;;8.10;99.90;;;;;;5146937;27;20043;-72
2022/11/13 10:03:08;;;;;;;10.45;8.93;;;8.00;99.90;;;;;;5128358;27;20043;-71
2022/11/13 10:05:48;;;;;;;10.95;7.90;;;8.30;99.90;;;;;;5129793;27;20066;-71
2022/11/13 10:08:46;;;;;;;11.85;8.07;;;7.90;99.90;;;;;;5148229;27;20099;-71
2022/11/13 10:11:25;;;;;;;9.43;7.82;;;8.20;99.90;;;;;;5125707;27;20078;-71
2022/11/13 10:13:56;;;;;;;11.32;8.25;;;8.50;99.90;;;;;;5147016;27;20043;-71
2022/11/13 10:16:54;;;;;;;9.38;8.05;;;8.60;99.90;;;;;;5147913;27;20087;-71
2022/11/13 10:19:55;;;;;;;10.10;8.43;;;8.30;99.90;;;;;;5133828;27;20074;-71
2022/11/13 10:23:13;;;;;;;9.98;8.52;;;8.20;99.90;;;;;;5133513;27;20495;-71
2022/11/13 10:25:41;;;;;;;12.20;8.93;;;8.40;99.90;;;;;;5073162;28;20063;-71
2022/11/13 10:28:25;;;;;;;11.73;8.55;;;8.80;99.90;;;;;;5142949;27;20089;-71
2022/11/13 10:30:50;;;;;;;12.25;7.85;;;8.50;99.90;;;;;;5147808;27;20117;-71
2022/11/13 10:33:19;;;;;;;11.48;8.65;;;8.70;99.90;;;;;;5147514;27;20109;-71
2022/11/13 10:36:19;;;;;;;10.35;7.90;;;8.70;99.90;;;;;;5129393;27;20038;-70
2022/11/13 10:38:53;;;;;;;12.38;8.50;;;8.60;99.90;;;;;;5148370;27;20045;-70
2022/11/13 10:41:20;;;;;;;10.40;8.48;;;8.50;99.90;;;;;;5148065;27;20093;-71
2022/11/13 10:44:17;;;;;;;11.43;9.00;;;8.50;99.90;;;;;;5145970;27;20039;-71
2022/11/13 10:46:42;;;;;;;10.88;9.00;;;8.90;99.90;;;;;;5112749;27;20039;-71
2022/11/13 10:49:16;;;;;;;9.45;8.45;;;9.10;99.90;;;;;;5130179;27;20045;-71
2022/11/13 10:51:42;;;;;;;10.77;8.73;;;9.00;99.90;;;;;;5145583;27;20088;-71
2022/11/13 10:54:21;;;;;;;10.45;8.60;;;9.10;99.90;;;;;;5147217;27;20047;-71
2022/11/13 10:56:59;;;;;;;10.65;8.68;;;8.80;99.90;;;;;;5145981;27;20046;-71
2022/11/13 10:59:26;;;;;;;10.68;8.02;;;8.90;99.90;;;;;;5147588;27;20049;-71
2022/11/13 11:01:52;;;;;;;8.95;7.47;;;9.40;99.90;;;;;;5146727;27;20061;-71
2022/11/13 11:04:28;;;;;;;10.38;8.00;;;9.00;99.90;;;;;;5148141;27;20478;-71
2022/11/13 11:06:55;;;;;;;10.25;8.00;;;9.20;99.90;;;;;;5146360;27;20532;-71
2022/11/13 11:09:27;;;;;;;9.25;7.72;;;9.10;99.90;;;;;;5129285;27;20053;-71
2022/11/13 11:12:18;;;;;;;10.93;7.85;;;9.20;99.90;;;;;;5146790;27;20107;-71
2022/11/13 11:14:55;;;;;;;9.65;8.27;;;9.30;99.90;;;;;;5126404;27;20082;-71
2022/11/13 11:17:45;;;;;;;10.27;8.13;;;9.50;99.90;;;;;;5126195;27;20039;-71
2022/11/13 11:20:28;;;;;;;8.73;7.22;;;9.30;99.90;;;;;;5147043;27;20047;-71
2022/11/13 11:23:01;;;;;;;13.20;7.88;;;9.40;99.90;;;;;;5128898;27;20066;-71
2022/11/13 11:25:41;;;;;;;9.27;7.22;;;9.40;99.90;;;;;;5147063;27;20121;-71
2022/11/13 11:28:24;;;;;;;9.13;7.78;;;9.70;99.90;;;;;;5145242;27;20031;-71
2022/11/13 11:30:55;;;;;;;10.18;8.30;;;9.60;99.90;;;;;;5146772;27;20054;-71
2022/11/13 11:33:53;;;;;;;9.32;7.88;;;10.00;99.90;;;;;;5146175;27;20421;-71
2022/11/13 11:36:19;;;;;;;9.13;7.43;;;9.60;99.90;;;;;;5146897;27;20394;-70
2022/11/13 11:38:53;;;;;;;11.60;8.15;;;9.70;99.90;;;;;;5126479;27;20035;-71
2022/11/13 11:41:24;;;;;;;9.18;8.18;;;9.80;99.90;;;;;;5126130;27;20059;-71
2022/11/13 11:44:04;;;;;;;9.10;7.97;;;9.70;99.90;;;;;;5126995;27;20127;-71
2022/11/13 11:46:30;;;;;;;10.85;8.50;;;10.00;99.90;;;;;;5127235;27;20387;-71
2022/11/13 11:48:59;;;;;;;12.60;7.78;;;9.80;99.90;;;;;;5126414;27;20039;-71
2022/11/13 11:51:35;;;;;;;9.27;8.27;;;9.90;99.90;;;;;;5144732;27;20034;-71
2022/11/13 11:54:39;;;;;;;8.60;7.50;;;9.90;99.90;;;;;;5144520;27;20089;-71
2022/11/13 11:57:43;;;;;;;10.52;8.45;;;9.90;99.90;;;;;;5146299;27;20038;-71
2022/11/13 12:00:11;;;;;;;;;;;10.00;99.90;;;;;;5145593;27;20043;-71
2022/11/13 12:02:56;;;;;;;9.95;8.13;;;10.20;99.90;;;;;;5144481;27;20297;-70
2022/11/13 12:05:28;;;;;;;9.00;7.85;;;10.10;99.90;;;;;;5125591;27;20051;-71
2022/11/13 12:08:05;;;;;;;9.30;8.07;;;10.20;99.90;;;;;;5144712;27;20043;-71
2022/11/13 12:10:42;;;;;;;10.45;8.48;;;10.20;99.90;;;;;;5145268;27;20389;-70
2022/11/13 12:13:39;;;;;;;10.10;8.63;;;10.20;99.90;;;;;;5144237;27;20399;-71
2022/11/13 12:16:24;;;;;;;10.95;8.10;;;10.20;99.90;;;;;;5144223;27;20115;-71
2022/11/13 12:19:09;;;;;;;11.00;7.57;;;10.30;99.90;;;;;;5124366;27;20046;-72
2022/11/13 12:22:04;;;;;;;9.52;7.70;;;10.30;99.90;;;;;;5145180;27;20046;-71
2022/11/13 12:24:55;;;;;;;9.80;7.85;;;10.40;99.90;;;;;;5135387;27;20045;-71
2022/11/13 12:27:41;;;;;;;9.13;7.45;;;10.40;99.90;;;;;;5144628;27;20493;-71
2022/11/13 12:30:42;;;;;;;9.68;7.70;;;10.50;99.90;;;;;;5143663;27;20066;-71
2022/11/13 12:33:14;;;;;;;10.40;7.75;;;10.50;99.90;;;;;;5139656;27;20153;-71
2022/11/13 12:35:45;;;;;;;10.90;8.83;;;10.60;99.90;;;;;;5124646;27;20150;-72
2022/11/13 12:38:34;;;;;;;10.40;7.93;;;10.50;99.90;;;;;;5144201;27;20046;-71
2022/11/13 12:41:12;;;;;;;11.77;7.50;;;10.50;99.90;;;;;;5145158;27;20118;-71
2022/11/13 12:43:50;;;;;;;9.75;7.97;;;10.60;99.90;;;;;;5126347;27;20085;-71
2022/11/13 12:46:16;;;;;;;10.57;8.30;;;10.60;99.90;;;;;;5145197;27;20059;-71
2022/11/13 12:48:45;;;;;;;10.73;9.02;;;10.70;99.90;;;;;;5142758;27;20043;-71
2022/11/13 12:51:13;;;;;;;11.18;8.68;;;10.60;99.90;;;;;;5144192;27;20070;-71
2022/11/13 12:53:57;;;;;;;9.88;7.95;;;10.70;99.90;;;;;;5145316;27;20456;-71
2022/11/13 12:56:28;;;;;;;10.30;7.35;;;10.90;99.90;;;;;;5126793;27;20095;-71
2022/11/13 12:59:25;;;;;;;10.27;7.28;;;10.70;99.90;;;;;;5125905;27;20122;-71
2022/11/13 13:02:08;;;;;;;9.95;8.13;;;10.40;99.90;;;;;;5142267;27;20051;-71